Terminal Aerodrome Forecast
Issued by NWS

Home | Current Version | Previous Version | Text Only | Print | Product List | Glossary On
Versions: 1 2 3 4 5 6 7 8 9 10 11 12 13
463
FTUS44 KJAN 261731
TAFHKS
TAF
KHKS 261731Z 2618/2718 11008KT P6SM SCT030 BKN050
     FM262100 12009KT 6SM -TSRA BKN035 BKN050CB
     FM270100 13006KT P6SM VCSH SCT050 BKN100
     FM270700 14004KT P6SM BKN009 BKN019 OVC030
     FM271500 17007KT P6SM VCTS SCT015 BKN025 BKN040CB=

USA.gov is the U.S. government's official web portal to all federal, state and local government web resources and services.